Time;durP1;ratioP1;P1;durP2;ratioP2;P2;SDS_P1;SDS_P2;PMS_P1;PMS_P2;Temp;Humidity;BMP_temperature;BMP_pressure;BME280_temperature;BME280_humidity;BME280_pressure;Samples;Min_cycle;Max_cycle;Signal;HPM_P1;HPM_P2
2022/07/11 00:00:51;;;;;;;11.38;5.38;;;;;;;16.38;100.00;102230.03;4936010;29;20031;-73
2022/07/11 00:03:16;;;;;;;10.68;5.10;;;;;;;16.38;100.00;102230.03;4972595;28;20458;-73
2022/07/11 00:05:42;;;;;;;10.32;4.78;;;;;;;16.46;99.47;102224.22;4974537;28;20023;-74
2022/07/11 00:08:07;;;;;;;9.73;4.78;;;;;;;16.41;99.92;102228.72;4965291;28;20099;-71
2022/07/11 00:10:33;;;;;;;11.07;5.28;;;;;;;16.43;100.00;102238.34;4936596;29;20083;-75
2022/07/11 00:12:59;;;;;;;13.10;5.38;;;;;;;16.43;100.00;102232.88;4934811;29;20032;-74
2022/07/11 00:15:24;;;;;;;10.20;5.43;;;;;;;16.42;100.00;102231.22;4936234;29;20023;-73
2022/07/11 00:17:49;;;;;;;8.93;5.13;;;;;;;16.38;100.00;102230.03;4966683;28;20089;-73
2022/07/11 00:20:15;;;;;;;12.05;5.68;;;;;;;16.33;100.00;102231.78;4936117;29;20466;-73
2022/07/11 00:22:40;;;;;;;10.35;5.40;;;;;;;16.29;100.00;102223.22;4936145;29;20028;-74
2022/07/11 00:25:06;;;;;;;6.22;4.63;;;;;;;16.37;100.00;102216.59;4951286;28;20473;-74
2022/07/11 00:27:32;;;;;;;8.85;5.30;;;;;;;16.28;100.00;102208.72;4973170;28;20062;-71
2022/07/11 00:29:57;;;;;;;9.15;5.10;;;;;;;16.28;100.00;102207.88;4954945;28;20065;-74
2022/07/11 00:32:23;;;;;;;12.15;4.80;;;;;;;16.36;100.00;102212.19;4955101;29;20054;-72
2022/07/11 00:34:48;;;;;;;13.73;5.15;;;;;;;16.29;100.00;102204.91;4961858;28;20023;-73
2022/07/11 00:37:13;;;;;;;10.27;4.55;;;;;;;16.24;100.00;102207.50;4974558;28;20423;-73
2022/07/11 00:39:39;;;;;;;6.10;4.78;;;;;;;16.22;100.00;102200.63;4957936;28;20023;-73
2022/07/11 00:42:04;;;;;;;12.70;4.60;;;;;;;16.27;100.00;102209.78;4954795;29;20455;-73
2022/07/11 00:44:29;;;;;;;7.10;4.90;;;;;;;16.23;100.00;102210.44;4953780;28;20024;-72
2022/07/11 00:46:55;;;;;;;11.75;5.28;;;;;;;16.21;100.00;102207.94;4954670;29;20027;-72
2022/07/11 00:49:21;;;;;;;10.32;4.88;;;;;;;16.16;100.00;102207.81;4943642;28;20106;-73
2022/07/11 00:51:47;;;;;;;9.32;4.97;;;;;;;16.10;100.00;102212.28;4972769;28;20038;-75
2022/07/11 00:54:14;;;;;;;12.05;5.28;;;;;;;16.06;100.00;102211.09;4973896;28;20023;-75
2022/07/11 00:56:40;;;;;;;10.20;5.55;;;;;;;16.01;100.00;102210.94;4972820;28;20022;-72
2022/07/11 00:59:08;;;;;;;13.13;5.90;;;;;;;15.90;100.00;102218.00;4951251;28;20125;-76
2022/07/11 01:01:37;;;;;;;11.48;6.20;;;;;;;15.91;100.00;102208.75;4947831;29;20024;-71
2022/07/11 01:04:03;;;;;;;11.60;6.20;;;;;;;15.94;100.00;102202.84;4937183;28;20079;-71
2022/07/11 01:06:29;;;;;;;11.18;5.57;;;;;;;15.86;100.00;102197.66;4973920;28;20026;-74
2022/07/11 01:08:54;;;;;;;10.10;5.47;;;;;;;15.92;100.00;102209.59;4953991;28;20075;-73
2022/07/11 01:11:20;;;;;;;9.68;5.30;;;;;;;15.93;100.00;102198.44;4936483;28;20035;-74
2022/07/11 01:13:46;;;;;;;10.25;5.30;;;;;;;15.90;100.00;102206.25;4956527;28;20031;-73
2022/07/11 01:16:18;;;;;;;10.48;5.90;;;;;;;15.97;100.00;102206.16;4953029;28;20034;-74
2022/07/11 01:18:46;;;;;;;10.88;5.57;;;;;;;15.90;100.00;102201.63;4953267;28;20098;-73
2022/07/11 01:21:21;;;;;;;10.30;5.93;;;;;;;15.86;100.00;102202.31;4986156;28;20041;-76
2022/07/11 01:23:48;;;;;;;9.23;5.90;;;;;;;15.87;100.00;102198.53;4934022;29;20027;-71
2022/07/11 01:26:15;;;;;;;8.85;5.75;;;;;;;15.76;100.00;102191.88;4933772;29;20027;-74
2022/07/11 01:28:40;;;;;;;10.07;5.70;;;;;;;15.80;100.00;102189.56;4933731;29;20031;-72
2022/07/11 01:31:10;;;;;;;10.60;5.35;;;;;;;15.83;100.00;102205.50;4934329;28;20052;-71
2022/07/11 01:33:45;;;;;;;13.33;5.80;;;;;;;15.74;100.00;102197.56;4948958;28;20039;-74
2022/07/11 01:36:21;;;;;;;12.55;6.47;;;;;;;15.65;100.00;102193.47;4949219;29;20074;-73
2022/07/11 01:38:59;;;;;;;11.13;6.07;;;;;;;15.53;100.00;102187.09;4949685;29;20035;-72
2022/07/11 01:41:37;;;;;;;11.68;6.57;;;;;;;15.54;100.00;102194.22;4950234;29;20482;-73
2022/07/11 01:44:10;;;;;;;8.93;6.32;;;;;;;15.44;100.00;102188.44;4951056;29;20094;-73
2022/07/11 01:46:45;;;;;;;13.68;6.63;;;;;;;15.40;100.00;102185.34;4960206;28;20023;-73
2022/07/11 01:49:19;;;;;;;14.15;6.47;;;;;;;15.40;100.00;102191.63;4949466;29;20028;-73
2022/07/11 01:51:54;;;;;;;12.40;6.45;;;;;;;15.34;100.00;102208.88;4949267;28;20090;-72
2022/07/11 01:54:30;;;;;;;15.45;7.35;;;;;;;15.35;100.00;102210.56;4933807;29;20530;-73
2022/07/11 01:57:05;;;;;;;14.73;8.07;;;;;;;15.27;100.00;102204.53;4933600;29;20382;-70
2022/07/11 01:59:33;;;;;;;18.42;7.05;;;;;;;15.30;100.00;102204.94;4933438;29;20115;-74
2022/07/11 02:02:06;;;;;;;11.82;7.20;;;;;;;15.29;100.00;102216.88;4946076;28;20428;-73
2022/07/11 02:04:41;;;;;;;11.98;6.93;;;;;;;15.23;100.00;102212.31;4933623;29;20043;-72
2022/07/11 02:08:11;;;;;;;15.35;7.40;;;;;;;15.23;100.00;102206.88;4933339;29;20043;-74
2022/07/11 02:10:08;;;;;;;13.60;7.35;;;;;;;15.22;100.00;102210.69;4934156;29;20356;-74
2022/07/11 02:12:41;;;;;;;12.25;6.75;;;;;;;15.26;100.00;102206.41;4939341;29;20031;-73
2022/07/11 02:15:09;;;;;;;10.50;7.00;;;;;;;15.32;100.00;102204.69;4949286;29;20371;-78
2022/07/11 02:17:35;;;;;;;12.05;7.03;;;;;;;15.26;100.00;102194.69;4948709;28;20028;-70
2022/07/11 02:20:01;;;;;;;18.10;7.38;;;;;;;15.24;100.00;102201.19;4957973;28;20038;-73
2022/07/11 02:22:34;;;;;;;17.98;7.65;;;;;;;15.18;100.00;102195.81;4962981;28;20034;-74
2022/07/11 02:28:21;;;;;;;13.55;7.72;;;;;;;15.11;100.00;102192.28;4937943;29;20034;-74
2022/07/11 02:30:47;;;;;;;11.20;7.47;;;;;;;15.16;100.00;102206.13;4952824;29;20023;-72
2022/07/11 02:33:15;;;;;;;14.25;8.05;;;;;;;15.14;100.00;102189.97;4949181;28;20031;-72
2022/07/11 02:35:47;;;;;;;13.43;7.45;;;;;;;15.07;100.00;102190.00;4976254;28;20027;-71
2022/07/11 02:38:13;;;;;;;15.77;8.45;;;;;;;15.13;100.00;102193.75;4974980;28;20110;-71
2022/07/11 02:40:39;;;;;;;13.02;7.68;;;;;;;15.07;100.00;102190.00;4975057;28;20026;-70
2022/07/11 02:43:05;;;;;;;10.32;7.63;;;;;;;15.17;100.00;102196.84;4962538;28;20470;-72
2022/07/11 02:45:30;;;;;;;10.57;7.20;;;;;;;15.17;100.00;102202.31;4957039;28;20518;-71
2022/07/11 02:47:56;;;;;;;14.57;8.20;;;;;;;15.17;100.00;102196.84;4956973;28;20027;-71
2022/07/11 02:50:21;;;;;;;14.20;8.10;;;;;;;15.13;100.00;102201.94;4974906;28;20114;-71
2022/07/11 02:52:47;;;;;;;14.18;8.23;;;;;;;15.10;100.00;102205.09;4954534;28;20145;-73
2022/07/11 02:55:15;;;;;;;13.43;8.18;;;;;;;15.01;100.00;102198.25;4936266;29;20024;-72
2022/07/11 02:57:40;;;;;;;18.92;8.77;;;;;;;15.02;100.00;102192.59;4952515;29;20038;-74
2022/07/11 03:00:09;;;;;;;18.50;9.00;;;;;;;15.01;100.00;102193.63;4937434;29;20036;-73
2022/07/11 03:02:34;;;;;;;15.25;8.25;;;;;;;15.11;100.00;102198.56;4935277;28;20521;-72
2022/07/11 03:05:00;;;;;;;17.85;8.32;;;;;;;15.20;100.00;102190.94;4949800;28;20114;-70
2022/07/11 03:07:26;;;;;;;14.32;7.97;;;;;;;15.23;100.00;102185.06;4937504;29;20027;-73
2022/07/11 03:09:52;;;;;;;16.35;8.27;;;;;;;15.34;100.00;102197.97;4937233;29;20487;-73
2022/07/11 03:12:18;;;;;;;13.63;8.20;;;;;;;15.36;100.00;102198.56;4951383;28;20043;-73
2022/07/11 03:14:43;;;;;;;12.85;8.20;;;;;;;15.39;100.00;102198.13;4937147;29;20028;-71
2022/07/11 03:17:08;;;;;;;15.82;8.63;;;;;;;15.46;100.00;102194.50;4937045;29;20431;-72
2022/07/11 03:19:33;;;;;;;13.82;7.65;;;;;;;15.47;100.00;102197.00;4957437;28;20058;-73
2022/07/11 03:21:59;;;;;;;13.93;7.70;;;;;;;15.44;100.00;102202.91;4971118;28;20427;-70
2022/07/11 03:24:24;;;;;;;15.02;8.50;;;;;;;15.47;100.00;102207.09;4955063;28;20031;-74
2022/07/11 03:26:50;;;;;;;15.88;8.27;;;;;;;15.50;100.00;102206.63;4956510;29;20628;-73
2022/07/11 03:29:15;;;;;;;16.90;8.70;;;;;;;15.48;100.00;102201.41;4955451;28;20033;-71
2022/07/11 03:31:40;;;;;;;14.77;8.25;;;;;;;15.46;100.00;102210.84;4953286;29;20019;-71
2022/07/11 03:34:06;;;;;;;10.88;7.93;;;;;;;15.46;100.00;102210.84;4962649;28;20118;-72
2022/07/11 03:36:31;;;;;;;12.75;8.02;;;;;;;15.41;100.00;102217.00;4974000;28;20027;-74
2022/07/11 03:38:56;;;;;;;13.35;8.60;;;;;;;15.39;100.00;102210.94;4975387;28;20439;-72
2022/07/11 03:41:22;;;;;;;14.15;8.55;;;;;;;15.34;100.00;102208.03;4975193;28;20389;-73
2022/07/11 03:43:47;;;;;;;20.23;8.48;;;;;;;15.36;100.00;102205.94;4956640;28;20089;-71
2022/07/11 03:46:12;;;;;;;13.25;8.50;;;;;;;15.33;100.00;102203.66;4954428;28;20126;-72
2022/07/11 03:48:37;;;;;;;13.65;9.05;;;;;;;15.32;100.00;102210.16;4961305;28;20034;-72
2022/07/11 03:51:03;;;;;;;15.15;8.25;;;;;;;15.36;100.00;102211.38;4973671;28;20105;-72
2022/07/11 03:53:28;;;;;;;16.40;8.50;;;;;;;15.37;100.00;102216.63;4945825;28;20024;-74
2022/07/11 03:55:53;;;;;;;15.30;8.55;;;;;;;15.34;100.00;102211.59;4936366;29;20114;-71
2022/07/11 03:58:19;;;;;;;12.50;8.13;;;;;;;15.31;100.00;102197.56;4936302;29;20110;-73
2022/07/11 04:00:44;;;;;;;14.10;8.15;;;;;;;15.40;100.00;102213.44;4934209;29;20032;-73
2022/07/11 04:03:10;;;;;;;13.45;8.80;;;;;;;15.38;100.00;102201.06;4949689;28;20036;-74
2022/07/11 04:05:35;;;;;;;13.13;8.25;;;;;;;15.32;100.00;102205.53;4936110;29;20050;-71
2022/07/11 04:08:01;;;;;;;16.17;8.93;;;;;;;15.34;100.00;102208.88;4936132;29;20036;-71
2022/07/11 04:10:26;;;;;;;14.52;8.77;;;;;;;15.33;100.00;102207.19;4935983;29;20031;-73
2022/07/11 04:12:51;;;;;;;13.35;8.57;;;;;;;15.35;100.00;102199.66;4944548;29;20435;-74
2022/07/11 04:15:17;;;;;;;17.77;9.27;;;;;;;15.32;100.00;102204.69;4953903;29;20073;-73
2022/07/11 04:17:42;;;;;;;14.73;8.48;;;;;;;15.29;100.00;102210.59;4955169;28;20035;-71
2022/07/11 04:20:08;;;;;;;12.38;8.10;;;;;;;15.28;100.00;102208.94;4959574;28;20439;-74
2022/07/11 04:22:33;;;;;;;13.27;8.27;;;;;;;15.20;100.00;102196.41;4966865;28;20033;-74
2022/07/11 04:24:58;;;;;;;14.00;8.55;;;;;;;15.22;100.00;102199.75;4954925;29;20514;-73
2022/07/11 04:27:26;;;;;;;13.73;8.45;;;;;;;15.25;100.00;102204.78;4954784;28;20053;-73
2022/07/11 04:29:54;;;;;;;14.13;8.32;;;;;;;15.25;100.00;102210.22;4953861;28;20463;-73
2022/07/11 04:32:20;;;;;;;14.45;8.38;;;;;;;15.31;100.00;102201.16;4953734;28;20023;-72
2022/07/11 04:34:46;;;;;;;16.00;8.63;;;;;;;15.31;100.00;102212.06;4960015;28;20018;-72
2022/07/11 04:37:11;;;;;;;13.63;8.35;;;;;;;15.34;100.00;102202.56;4972937;28;20035;-73
2022/07/11 04:39:36;;;;;;;11.77;7.85;;;;;;;15.39;100.00;102213.66;4973046;28;20085;-73
2022/07/11 04:42:02;;;;;;;13.63;7.70;;;;;;;15.40;100.00;102207.97;4969218;28;20031;-70
2022/07/11 04:44:28;;;;;;;16.10;7.65;;;;;;;15.39;100.00;102214.50;4935552;29;20349;-75
2022/07/11 04:46:53;;;;;;;13.48;7.82;;;;;;;15.37;100.00;102211.16;4935704;29;20371;-71
2022/07/11 04:49:18;;;;;;;16.42;8.55;;;;;;;15.38;100.00;102215.56;4935182;29;20036;-73
2022/07/11 04:51:44;;;;;;;16.42;8.75;;;;;;;15.37;100.00;102222.06;4953042;28;20027;-72
2022/07/11 04:54:12;;;;;;;16.58;8.02;;;;;;;15.32;100.00;102226.53;4936245;28;20082;-73
2022/07/11 04:56:38;;;;;;;19.55;8.25;;;;;;;15.36;100.00;102220.38;4935608;29;20051;-72
2022/07/11 04:59:04;;;;;;;15.57;7.75;;;;;;;15.33;100.00;102226.28;4935308;29;20051;-74
2022/07/11 05:01:29;;;;;;;11.05;7.72;;;;;;;15.31;100.00;102225.69;4933166;29;20027;-73
2022/07/11 05:03:55;;;;;;;15.40;8.10;;;;;;;15.32;100.00;102232.78;4952617;28;20522;-73
2022/07/11 05:06:21;;;;;;;17.88;7.72;;;;;;;15.32;100.00;102231.97;4973729;28;20026;-73
2022/07/11 05:08:46;;;;;;;17.70;7.75;;;;;;;15.31;100.00;102233.03;4973971;28;20018;-72
2022/07/11 05:11:11;;;;;;;15.57;8.00;;;;;;;15.32;100.00;102235.53;4972328;28;20037;-72
2022/07/11 05:13:37;;;;;;;11.02;7.50;;;;;;;15.34;100.00;102240.75;4958772;28;20474;-71
2022/07/11 05:16:03;;;;;;;23.55;8.10;;;;;;;15.36;100.00;102244.13;4954524;28;20027;-73
2022/07/11 05:18:28;;;;;;;20.30;8.07;;;;;;;15.37;100.00;102243.06;4956248;28;20502;-73
2022/07/11 05:20:53;;;;;;;16.50;7.30;;;;;;;15.40;100.00;102231.72;4973758;28;20037;-70
2022/07/11 05:23:19;;;;;;;20.95;7.70;;;;;;;15.40;100.00;102235.25;4959836;28;20031;-74
2022/07/11 05:25:44;;;;;;;19.20;7.30;;;;;;;15.45;100.00;102242.78;4952354;29;20058;-70
2022/07/11 05:28:09;;;;;;;17.65;8.38;;;;;;;15.50;100.00;102245.66;4949854;29;20027;-71
2022/07/11 05:30:34;;;;;;;17.48;7.13;;;;;;;15.51;100.00;102239.16;4935132;29;20371;-71
2022/07/11 05:33:00;;;;;;;16.95;7.43;;;;;;;15.54;100.00;102251.50;4942989;29;20074;-72
2022/07/11 05:35:25;;;;;;;17.98;7.95;;;;;;;15.54;100.00;102246.06;4952915;28;20480;-71
2022/07/11 05:37:51;;;;;;;18.30;7.72;;;;;;;15.59;100.00;102246.19;4967142;28;20533;-73
2022/07/11 05:40:16;;;;;;;18.98;7.53;;;;;;;15.62;100.00;102248.47;4973391;28;20031;-70
2022/07/11 05:42:44;;;;;;;15.52;8.10;;;;;;;15.63;100.00;102247.44;4966369;28;20471;-70
2022/07/11 05:45:10;;;;;;;13.35;7.45;;;;;;;15.67;100.00;102245.06;4954132;28;20023;-71
2022/07/11 05:47:35;;;;;;;16.73;7.57;;;;;;;15.68;100.00;102242.13;4954330;28;20079;-73
2022/07/11 05:50:00;;;;;;;14.15;7.75;;;;;;;15.71;100.00;102246.31;4954303;28;20063;-73
2022/07/11 05:52:26;;;;;;;19.48;7.63;;;;;;;15.75;100.00;102247.53;4958689;28;20169;-71
2022/07/11 05:54:51;;;;;;;16.58;7.70;;;;;;;15.76;100.00;102250.03;4938518;29;20364;-72
2022/07/11 05:57:16;;;;;;;15.63;7.90;;;;;;;15.79;100.00;102247.94;4938854;29;20122;-71
2022/07/11 05:59:42;;;;;;;14.50;8.13;;;;;;;15.82;100.00;102252.94;4938788;29;20181;-73
2022/07/11 06:02:07;;;;;;;17.45;7.65;;;;;;;15.83;100.00;102254.63;4936508;29;20028;-72
2022/07/11 06:04:33;;;;;;;11.82;7.43;;;;;;;15.80;100.00;102250.44;4957525;29;20035;-74
2022/07/11 06:06:59;;;;;;;14.70;7.70;;;;;;;15.81;100.00;102254.03;4969485;28;20049;-74
2022/07/11 06:09:24;;;;;;;10.70;7.85;;;;;;;15.82;100.00;102258.41;4976561;28;20022;-72
2022/07/11 06:11:49;;;;;;;11.05;7.47;;;;;;;15.83;100.00;102247.25;4976690;28;20023;-71
2022/07/11 06:14:15;;;;;;;13.52;8.30;;;;;;;15.88;100.00;102255.63;4958024;28;20038;-73
2022/07/11 06:16:40;;;;;;;12.13;8.35;;;;;;;15.92;100.00;102261.44;4957599;28;20067;-74
2022/07/11 06:19:06;;;;;;;13.50;7.35;;;;;;;15.92;100.00;102270.47;4956108;29;20107;-73
2022/07/11 06:21:31;;;;;;;16.17;7.95;;;;;;;15.96;100.00;102273.59;4966629;28;20110;-71
2022/07/11 06:23:56;;;;;;;10.57;7.57;;;;;;;15.94;100.00;102267.50;4960560;28;20041;-72
2022/07/11 06:26:22;;;;;;;14.25;7.72;;;;;;;15.92;100.00;102275.09;4957236;29;20030;-73
2022/07/11 06:28:47;;;;;;;14.40;8.05;;;;;;;15.91;100.00;102274.28;4957192;28;20492;-71
2022/07/11 06:31:13;;;;;;;13.25;8.30;;;;;;;16.00;100.00;102271.22;4956871;29;20062;-72
2022/07/11 06:33:39;;;;;;;14.55;8.38;;;;;;;16.00;100.00;102272.06;4955773;28;20037;-72
2022/07/11 06:36:05;;;;;;;16.05;9.93;;;;;;;16.02;100.00;102269.94;4963376;28;20030;-72
2022/07/11 06:38:31;;;;;;;17.25;9.05;;;;;;;16.03;100.00;102270.78;4975108;28;20465;-74
2022/07/11 06:40:56;;;;;;;13.60;8.15;;;;;;;16.05;100.00;102274.97;4974740;28;20027;-73
2022/07/11 06:43:22;;;;;;;10.90;7.28;;;;;;;16.05;100.00;102268.69;4960684;28;20032;-72
2022/07/11 06:45:48;;;;;;;8.90;7.03;;;;;;;16.07;100.00;102272.81;4937860;29;20036;-73
2022/07/11 06:48:14;;;;;;;12.45;7.10;;;;;;;16.07;100.00;102272.00;4937651;29;20050;-73
2022/07/11 06:50:40;;;;;;;12.57;6.47;;;;;;;16.10;100.00;102271.53;4937794;29;20028;-74
2022/07/11 06:53:05;;;;;;;10.45;6.30;;;;;;;16.18;100.00;102273.97;4943868;28;20055;-71
2022/07/11 06:55:31;;;;;;;8.48;6.18;;;;;;;16.23;100.00;102267.81;4936164;29;20086;-76
2022/07/11 06:57:57;;;;;;;8.65;5.80;;;;;;;16.29;100.00;102259.56;4952386;29;20035;-71
2022/07/11 07:00:23;;;;;;;8.98;5.78;;;;;;;16.26;100.00;102267.34;4951044;28;20105;-75
2022/07/11 07:02:48;;;;;;;7.53;5.63;;;;;;;16.27;100.00;102264.41;4956496;28;20034;-72
2022/07/11 07:05:13;;;;;;;10.02;6.18;;;;;;;16.25;100.00;102269.25;4956152;28;20030;-74
2022/07/11 07:07:40;;;;;;;9.90;5.95;;;;;;;16.28;100.00;102263.34;4964202;28;20522;-79
2022/07/11 07:10:07;;;;;;;9.80;5.85;;;;;;;16.26;100.00;102257.28;4976631;28;20414;-72
2022/07/11 07:12:37;;;;;;;8.43;5.88;;;;;;;16.36;100.00;102258.63;4971236;28;20119;-72
2022/07/11 07:15:03;;;;;;;10.02;5.70;;;;;;;16.42;100.00;102265.91;4942028;28;20475;-74
2022/07/11 07:17:28;;;;;;;9.13;5.80;;;;;;;16.43;100.00;102260.22;4937017;29;20107;-74
2022/07/11 07:19:54;;;;;;;11.55;6.55;;;;;;;16.47;100.00;102268.78;4937333;29;20035;-74
2022/07/11 07:22:19;;;;;;;6.97;5.63;;;;;;;16.53;100.00;102270.63;4951526;28;20352;-73
2022/07/11 07:24:45;;;;;;;11.82;6.40;;;;;;;16.55;100.00;102264.91;4956460;28;20027;-76
2022/07/11 07:27:11;;;;;;;11.27;6.57;;;;;;;16.48;100.00;102257.63;4956279;28;20023;-76
2022/07/11 07:29:36;;;;;;;10.70;6.50;;;;;;;16.57;100.00;102254.56;4956126;28;20031;-75
2022/07/11 07:32:02;;;;;;;11.13;6.53;;;;;;;16.62;100.00;102254.72;4956238;28;20440;-73
2022/07/11 07:34:28;;;;;;;9.45;6.40;;;;;;;16.66;100.00;102253.19;4954766;28;20143;-74
2022/07/11 07:36:53;;;;;;;10.40;6.18;;;;;;;16.71;100.00;102250.56;4961209;28;20451;-74
2022/07/11 07:39:18;;;;;;;8.15;6.30;;;;;;;16.73;100.00;102244.91;4974146;28;20079;-72
2022/07/11 07:41:46;;;;;;;8.48;6.50;;;;;;;16.76;100.00;102248.00;4975403;28;20101;-82
2022/07/11 07:44:11;;;;;;;11.65;6.47;;;;;;;16.83;100.00;102251.47;4957051;28;20098;-78
2022/07/11 07:46:37;;;;;;;7.80;5.85;;;;;;;16.90;100.00;102247.84;4946757;28;20121;-75
2022/07/11 07:49:02;;;;;;;5.82;5.20;;;;;;;16.96;100.00;102258.66;4936930;29;20122;-73
2022/07/11 07:51:28;;;;;;;5.97;5.35;;;;;;;17.05;100.00;102261.91;4944405;29;20031;-77
2022/07/11 07:53:54;;;;;;;7.95;6.32;;;;;;;17.12;100.00;102270.84;4941011;28;20027;-74
2022/07/11 07:56:19;;;;;;;6.90;5.55;;;;;;;17.17;100.00;102262.75;4969123;28;20086;-77
2022/07/11 07:58:45;;;;;;;7.95;5.45;;;;;;;17.17;100.00;102264.66;4955583;28;20537;-77
2022/07/11 08:03:54;;;;;;;9.32;6.53;;;;;;;17.23;100.00;102273.84;4944369;29;20038;-76
2022/07/11 08:06:20;;;;;;;10.52;6.53;;;;;;;17.29;100.00;102272.91;4947546;29;20379;-75
2022/07/11 08:08:45;;;;;;;7.03;6.32;;;;;;;17.31;100.00;102270.75;4951745;28;20022;-74
2022/07/11 08:11:19;;;;;;;9.35;5.28;;;;;;;17.31;100.00;102278.97;4954887;28;20035;-80
2022/07/11 08:13:44;;;;;;;7.03;5.47;;;;;;;17.32;100.00;102272.44;4936274;29;20027;-76
2022/07/11 08:16:10;;;;;;;7.72;5.57;;;;;;;17.34;100.00;102279.31;4953279;28;20023;-75
2022/07/11 08:18:35;;;;;;;6.55;5.32;;;;;;;17.32;100.00;102283.38;4954664;28;20118;-76
2022/07/11 08:21:01;;;;;;;9.10;5.80;;;;;;;17.29;100.00;102276.47;4942058;28;20034;-74
2022/07/11 08:23:26;;;;;;;9.00;6.05;;;;;;;17.26;100.00;102274.19;4952923;28;20031;-75
2022/07/11 08:25:52;;;;;;;5.90;5.30;;;;;;;17.32;100.00;102275.16;4950880;28;20053;-76
2022/07/11 08:28:18;;;;;;;6.97;5.47;;;;;;;17.35;100.00;102271.97;4935884;29;20036;-75
2022/07/11 08:30:43;;;;;;;7.78;5.55;;;;;;;17.38;100.00;102282.44;4944151;29;20035;-76
2022/07/11 08:33:09;;;;;;;14.32;7.43;;;;;;;17.41;100.00;102279.22;4955132;28;20090;-77
2022/07/11 08:35:35;;;;;;;10.40;7.93;;;;;;;17.43;100.00;102279.81;4954545;28;20123;-77
2022/07/11 08:38:00;;;;;;;9.88;7.32;;;;;;;17.49;100.00;102278.84;4951399;29;20034;-74
2022/07/11 08:40:26;;;;;;;9.63;6.38;;;;;;;17.46;100.00;102273.03;4943479;29;20031;-73
2022/07/11 08:42:55;;;;;;;11.05;7.50;;;;;;;17.38;100.00;102282.44;4942088;29;20459;-74
2022/07/11 08:45:28;;;;;;;13.52;7.45;;;;;;;17.45;100.00;102274.94;4954499;28;20031;-72
2022/07/11 08:47:54;;;;;;;12.27;7.95;;;;;;;17.41;100.00;102273.75;4954765;28;20035;-74
2022/07/11 08:50:21;;;;;;;15.50;7.57;;;;;;;17.45;100.00;102271.38;4954204;29;20114;-74
2022/07/11 08:52:46;;;;;;;14.68;8.23;;;;;;;17.49;100.00;102273.38;4954821;28;20023;-71
2022/07/11 08:55:12;;;;;;;11.02;7.90;;;;;;;17.52;100.00;102272.91;4955060;29;20027;-71
2022/07/11 08:57:37;;;;;;;11.50;7.95;;;;;;;17.56;100.00;102277.91;4954539;29;20023;-72
2022/07/11 09:00:08;;;;;;;16.90;8.57;;;;;;;17.56;100.00;102278.75;4937316;28;20035;-74
2022/07/11 09:02:35;;;;;;;12.95;9.55;;;;;;;17.63;100.00;102271.25;4933105;29;20070;-73
2022/07/11 09:05:05;;;;;;;12.63;8.98;;;;;;;17.67;100.00;102274.34;4935514;29;20055;-73
2022/07/11 09:07:31;;;;;;;12.63;8.90;;;;;;;17.69;100.00;102270.31;4935287;29;20070;-74
2022/07/11 09:09:56;;;;;;;13.73;9.93;;;;;;;17.70;100.00;102268.41;4950472;29;20452;-73
2022/07/11 09:12:22;;;;;;;19.10;10.43;;;;;;;17.74;100.00;102269.59;4954408;28;20049;-74
2022/07/11 09:14:48;;;;;;;13.27;9.57;;;;;;;17.81;100.00;102269.47;4954615;28;20373;-72
2022/07/11 09:17:14;;;;;;;15.95;9.43;;;;;;;17.85;100.00;102260.53;4954616;28;20069;-73
2022/07/11 09:19:39;;;;;;;14.65;10.25;;;;;;;17.87;100.00;102272.09;4953262;28;20082;-74
2022/07/11 09:27:56;;;;;;;12.98;8.65;;;;;;;18.20;100.00;102253.38;4935090;29;20103;-71
2022/07/11 09:30:26;;;;;;;14.88;9.60;;;;;;;18.31;98.73;102263.44;4957185;29;20035;-72
2022/07/11 09:32:55;;;;;;;14.20;9.38;;;;;;;18.29;95.69;102256.56;4958349;28;20518;-75
2022/07/11 09:35:25;;;;;;;13.48;8.95;;;;;;;18.39;100.00;102259.53;4958251;28;20033;-73
2022/07/11 09:37:51;;;;;;;16.15;8.82;;;;;;;18.44;94.70;102259.59;4958344;28;20599;-71
2022/07/11 09:40:17;;;;;;;17.77;9.07;;;;;;;18.53;95.95;102255.41;4939256;28;20058;-73
2022/07/11 09:42:51;;;;;;;12.07;8.55;;;;;;;18.53;95.16;102258.13;4937580;29;20031;-74
2022/07/11 09:45:17;;;;;;;14.43;8.57;;;;;;;18.55;93.44;102258.72;4939092;29;20091;-74
2022/07/11 09:47:48;;;;;;;12.93;8.68;;;;;;;18.56;93.48;102259.56;4938808;29;20027;-74
2022/07/11 09:50:21;;;;;;;14.70;9.07;;;;;;;18.62;94.83;102268.72;4938392;29;20038;-74
2022/07/11 09:53:14;;;;;;;11.55;8.85;;;;;;;18.65;93.83;102262.75;4953412;29;20095;-74
2022/07/11 09:55:41;;;;;;;15.82;8.38;;;;;;;18.64;93.36;102255.59;4953245;29;20031;-75
2022/07/11 09:58:11;;;;;;;12.02;8.52;;;;;;;18.64;93.07;102261.91;4938079;29;20172;-71
2022/07/11 10:00:38;;;;;;;12.85;9.23;;;;;;;18.58;92.48;102252.78;4936098;29;20031;-72
2022/07/11 10:03:05;;;;;;;13.38;8.65;;;;;;;18.57;94.43;102255.75;4938532;29;20027;-72
2022/07/11 10:05:31;;;;;;;13.82;9.52;;;;;;;18.66;97.51;102258.91;4938459;29;20107;-71
2022/07/11 10:07:57;;;;;;;12.32;9.38;;;;;;;18.68;96.26;102263.09;4938949;29;20459;-72
2022/07/11 10:10:24;;;;;;;13.15;8.60;;;;;;;18.71;93.36;102270.00;4938511;29;20476;-74
2022/07/11 10:12:51;;;;;;;11.88;8.32;;;;;;;18.69;95.25;102267.50;4938507;29;20032;-74
2022/07/11 10:15:20;;;;;;;16.58;8.77;;;;;;;18.71;95.00;102270.81;4938479;29;20070;-74
2022/07/11 10:18:03;;;;;;;13.90;9.52;;;;;;;18.71;92.96;102262.59;4937961;29;20052;-74
2022/07/11 10:20:32;;;;;;;12.15;8.50;;;;;;;18.72;93.37;102263.41;4954879;29;20378;-73
2022/07/11 10:23:20;;;;;;;14.85;8.90;;;;;;;18.80;94.66;102252.06;4957472;28;20023;-74
2022/07/11 10:25:55;;;;;;;12.80;8.05;;;;;;;18.91;93.23;102266.81;4957284;28;20062;-74
2022/07/11 10:28:31;;;;;;;11.55;8.50;;;;;;;19.00;93.42;102270.00;4956272;28;20026;-73
2022/07/11 10:30:59;;;;;;;12.30;8.93;;;;;;;19.02;91.70;102267.84;4957468;28;20111;-72
2022/07/11 10:33:25;;;;;;;14.70;8.98;;;;;;;18.96;89.94;102277.88;4957185;28;20027;-72
2022/07/11 10:35:52;;;;;;;12.73;9.43;;;;;;;18.98;90.30;102272.16;4956867;28;20037;-72
2022/07/11 10:38:18;;;;;;;13.63;8.55;;;;;;;18.98;89.16;102283.13;4947974;28;20035;-74
2022/07/11 10:40:57;;;;;;;13.57;9.05;;;;;;;19.04;91.94;102282.16;4936530;29;20086;-72
2022/07/11 10:43:22;;;;;;;15.35;8.90;;;;;;;19.16;94.23;102273.84;4937966;29;20030;-71
2022/07/11 10:46:00;;;;;;;15.20;8.60;;;;;;;19.19;89.76;102276.94;4937915;29;20027;-73
2022/07/11 10:48:26;;;;;;;14.27;8.48;;;;;;;19.28;90.19;102272.69;4937796;29;20032;-73
2022/07/11 10:51:36;;;;;;;13.38;8.25;;;;;;;19.41;90.57;102276.19;4937834;29;20019;-71
2022/07/11 10:54:15;;;;;;;11.02;7.25;;;;;;;19.43;86.27;102277.59;4924833;29;20043;-74
2022/07/11 10:56:54;;;;;;;10.70;7.35;;;;;;;19.42;86.13;102277.84;4937206;29;20035;-73
2022/07/11 10:59:20;;;;;;;8.55;6.50;;;;;;;19.45;86.02;102277.34;4937452;29;20028;-71
2022/07/11 11:02:07;;;;;;;14.85;6.30;;;;;;;19.46;85.97;102277.09;4938124;29;20345;-73
2022/07/11 11:04:42;;;;;;;9.50;6.47;;;;;;;19.43;86.77;102274.00;4937380;29;20035;-74
2022/07/11 11:07:27;;;;;;;8.15;5.93;;;;;;;19.44;86.52;102276.50;4937582;29;20041;-72
2022/07/11 11:09:52;;;;;;;8.00;5.45;;;;;;;19.36;84.62;102274.19;4937271;29;20031;-72
2022/07/11 11:12:17;;;;;;;9.50;5.60;;;;;;;19.30;84.05;102280.69;4947574;29;20485;-74
2022/07/11 11:14:42;;;;;;;5.93;4.78;;;;;;;19.26;84.69;102285.84;4956412;29;20459;-74
2022/07/11 11:17:36;;;;;;;6.65;4.88;;;;;;;19.27;87.51;102282.00;4956629;29;20094;-71
2022/07/11 11:20:04;;;;;;;7.10;4.15;;;;;;;19.23;88.08;102278.06;4956533;28;20039;-71
2022/07/11 11:22:29;;;;;;;6.07;4.25;;;;;;;19.30;88.18;102286.16;4954947;28;20477;-72
2022/07/11 11:24:56;;;;;;;4.72;4.22;;;;;;;19.33;86.73;102290.34;4956420;28;20031;-72